Time;durP1;ratioP1;P1;durP2;ratioP2;P2;SDS_P1;SDS_P2;PMS_P1;PMS_P2;Temp;Humidity;BMP_temperature;BMP_pressure;BME280_temperature;BME280_humidity;BME280_pressure;Samples;Min_cycle;Max_cycle;Signal;HPM_P1;HPM_P2
2022/10/31 00:02:15;;;;;;;;;;;;;;;16.36;57.14;101056.69;4958057;28;1988;-46
2022/10/31 00:04:40;;;;;;;;;;;;;;;16.21;56.81;101062.06;4947131;28;1406;-47
2022/10/31 00:07:05;;;;;;;;;;;;;;;16.05;56.67;101061.97;4959694;28;1181;-47
2022/10/31 00:09:31;;;;;;;;;;;;;;;16.03;56.73;101072.38;4957800;28;1130;-46
2022/10/31 00:11:56;;;;;;;;;;;;;;;15.91;56.68;101060.78;4959169;28;1173;-49
2022/10/31 00:14:22;;;;;;;;;;;;;;;17.18;56.46;101066.41;4958921;28;1172;-49
2022/10/31 00:16:47;;;;;;;;;;;;;;;16.76;56.92;101062.69;4959502;28;1224;-46
2022/10/31 00:19:13;;;;;;;;;;;;;;;16.36;57.46;101064.91;4959356;28;1129;-48
2022/10/31 00:21:38;;;;;;;;;;;;;;;16.22;56.95;101056.31;4959605;28;1975;-45
2022/10/31 00:24:04;;;;;;;;;;;;;;;16.08;56.87;101052.38;4959024;28;1062;-49
2022/10/31 00:26:29;;;;;;;;;;;;;;;16.20;57.32;101054.94;4958939;28;1173;-47
2022/10/31 00:28:55;;;;;;;;;;;;;;;17.53;55.81;101059.31;4959250;28;1121;-49
2022/10/31 00:31:20;;;;;;;;;;;;;;;16.70;57.13;101060.97;4959137;28;1185;-49
2022/10/31 00:33:46;;;;;;;;;;;;;;;16.38;57.27;101056.41;4959106;29;1083;-45
2022/10/31 00:36:12;;;;;;;;;;;;;;;16.17;56.95;101047.22;4958749;28;1381;-47
2022/10/31 00:38:40;;;;;;;;;;;;;;;16.13;56.68;101057.91;4958880;28;1129;-46
2022/10/31 00:41:05;;;;;;;;;;;;;;;16.00;56.82;101052.88;4959284;28;1134;-45
2022/10/31 00:43:30;;;;;;;;;;;;;;;16.27;56.98;101054.69;4989475;28;1969;-46
2022/10/31 00:45:56;;;;;;;;;;;;;;;17.60;55.56;101062.66;4958537;28;1176;-46
2022/10/31 00:48:23;;;;;;;;;;;;;;;16.88;57.03;101062.44;4959119;28;1157;-46
2022/10/31 00:50:49;;;;;;;;;;;;;;;16.46;57.25;101052.34;4958770;28;1138;-48
2022/10/31 00:53:14;;;;;;;;;;;;;;;16.29;57.17;101056.09;4958686;28;1228;-47
2022/10/31 00:55:40;;;;;;;;;;;;;;;16.17;56.73;101049.97;4957428;29;1323;-48
2022/10/31 00:58:06;;;;;;;;;;;;;;;16.00;56.75;101053.69;4957452;29;1228;-46
2022/10/31 01:00:31;;;;;;;;;;;;;;;15.91;56.51;101063.50;4989688;28;1392;-48
2022/10/31 01:02:57;;;;;;;;;;;;;;;16.07;56.86;101059.81;4989506;28;1971;-48
2022/10/31 01:05:22;;;;;;;;;;;;;;;17.45;55.98;101058.78;4989479;28;1308;-44
2022/10/31 01:07:47;;;;;;;;;;;;;;;16.82;57.08;101056.09;4989253;28;1232;-49
2022/10/31 01:10:13;;;;;;;;;;;;;;;16.40;57.56;101059.75;4958629;28;1106;-47
2022/10/31 01:12:39;;;;;;;;;;;;;;;16.21;57.06;101051.09;4958161;28;1228;-49
2022/10/31 01:15:05;;;;;;;;;;;;;;;16.45;57.61;101056.19;4956534;28;1448;-49
2022/10/31 01:17:30;;;;;;;;;;;;;;;17.37;55.77;101053.81;4958566;28;1228;-50
2022/10/31 01:19:56;;;;;;;;;;;;;;;16.65;57.34;101052.72;4957274;28;1397;-45
2022/10/31 01:22:21;;;;;;;;;;;;;;;16.39;57.38;101045.16;4957256;28;1906;-48
2022/10/31 01:24:46;;;;;;;;;;;;;;;16.24;56.97;101043.19;4956848;29;1149;-45
2022/10/31 01:27:12;;;;;;;;;;;;;;;16.12;56.60;101055.41;4958280;28;887;-47
2022/10/31 01:29:37;;;;;;;;;;;;;;;16.03;56.51;101053.19;4989488;28;1136;-47
2022/10/31 01:32:03;;;;;;;;;;;;;;;16.40;57.37;101054.25;4958361;28;1151;-47
2022/10/31 01:34:28;;;;;;;;;;;;;;;17.38;56.06;101054.66;4940891;29;1229;-48
2022/10/31 01:36:54;;;;;;;;;;;;;;;16.63;57.36;101055.72;4958123;28;1201;-44
2022/10/31 01:39:21;;;;;;;;;;;;;;;16.34;57.42;101056.13;4958029;28;1452;-49
2022/10/31 01:41:47;;;;;;;;;;;;;;;16.15;56.95;101049.44;4958081;28;1910;-46
2022/10/31 01:44:13;;;;;;;;;;;;;;;16.02;57.04;101046.03;4958387;28;1205;-42
2022/10/31 01:46:39;;;;;;;;;;;;;;;16.43;57.51;101049.03;4957960;28;1185;-49
2022/10/31 01:49:05;;;;;;;;;;;;;;;17.75;55.12;101054.41;4958329;28;1189;-49
2022/10/31 01:51:34;;;;;;;;;;;;;;;16.94;56.87;101061.38;4957708;28;921;-46
2022/10/31 01:54:01;;;;;;;;;;;;;;;16.50;57.07;101057.03;4958195;28;1221;-47
2022/10/31 01:56:27;;;;;;;;;;;;;;;16.31;57.08;101059.38;4958203;28;1126;-48
2022/10/31 01:58:52;;;;;;;;;;;;;;;16.16;56.98;101062.88;4988690;28;1187;-50
2022/10/31 02:01:18;;;;;;;;;;;;;;;16.69;57.23;101048.34;4956848;29;1906;-48
2022/10/31 02:03:44;;;;;;;;;;;;;;;17.17;56.59;101049.09;4957771;28;1221;-48
2022/10/31 02:06:10;;;;;;;;;;;;;;;16.53;57.22;101050.19;4956349;29;1114;-49
2022/10/31 02:08:36;;;;;;;;;;;;;;;16.31;57.02;101051.16;4989047;28;1101;-46
2022/10/31 02:11:01;;;;;;;;;;;;;;;16.20;56.78;101044.81;4940908;29;1438;-50
2022/10/31 02:13:27;;;;;;;;;;;;;;;16.08;56.59;101052.38;4979888;28;1251;-48
2022/10/31 02:15:54;;;;;;;;;;;;;;;15.98;56.51;101055.06;4982481;28;1161;-48
2022/10/31 02:18:20;;;;;;;;;;;;;;;17.15;56.58;101059.53;4956761;28;1155;-48
2022/10/31 02:21:05;;;;;;;;;;;;;;;17.14;56.61;101066.13;4940989;29;1139;-48
2022/10/31 02:23:31;;;;;;;;;;;;;;;16.52;57.35;101065.00;4956489;29;1906;-44
2022/10/31 02:26:08;;;;;;;;;;;;;;;16.36;56.82;101070.41;4956454;29;1145;-48
2022/10/31 02:28:37;;;;;;;;;;;;;;;16.20;56.67;101060.41;4956323;29;1490;-48
2022/10/31 02:31:18;;;;;;;;;;;;;;;16.04;56.41;101064.97;4956677;29;1175;-48
2022/10/31 02:33:51;;;;;;;;;;;;;;;15.97;56.44;101059.72;4942729;29;1623;-49
2022/10/31 02:36:21;;;;;;;;;;;;;;;17.10;56.43;101070.53;4960114;29;1086;-49
2022/10/31 02:38:55;;;;;;;;;;;;;;;17.20;56.35;101065.03;4960971;28;1244;-47
2022/10/31 02:41:42;;;;;;;;;;;;;;;16.54;57.49;101057.34;4960065;29;1969;-48
2022/10/31 02:44:26;;;;;;;;;;;;;;;16.32;56.99;101058.31;4959970;29;1121;-50
2022/10/31 02:46:53;;;;;;;;;;;;;;;16.16;56.82;101067.53;4975768;28;1160;-47
2022/10/31 02:49:21;;;;;;;;;;;;;;;16.75;57.09;101063.75;4960063;29;1185;-50
2022/10/31 02:51:47;;;;;;;;;;;;;;;17.24;56.17;101066.16;4959829;29;1121;-50
2022/10/31 02:54:17;;;;;;;;;;;;;;;16.62;57.26;101070.56;4961164;28;1146;-47
2022/10/31 02:56:42;;;;;;;;;;;;;;;16.35;57.36;101074.22;4959833;29;1192;-46
2022/10/31 02:59:08;;;;;;;;;;;;;;;16.20;56.73;101074.13;4960609;28;1133;-47
2022/10/31 03:01:37;;;;;;;;;;;;;;;16.07;56.88;101081.75;4959735;29;1907;-47
2022/10/31 03:04:03;;;;;;;;;;;;;;;16.01;56.79;101088.28;4959236;29;1196;-46
2022/10/31 03:06:40;;;;;;;;;;;;;;;17.41;56.31;101074.16;4959443;29;1204;-49
2022/10/31 03:09:11;;;;;;;;;;;;;;;16.84;56.95;101077.81;4959234;29;1204;-46
2022/10/31 03:11:42;;;;;;;;;;;;;;;16.47;57.34;101078.72;4959519;29;1185;-49
2022/10/31 03:14:14;;;;;;;;;;;;;;;16.25;57.01;101090.66;4991715;28;1253;-47
2022/10/31 03:16:47;;;;;;;;;;;;;;;16.14;56.74;101080.69;4975141;28;1344;-49
2022/10/31 03:19:17;;;;;;;;;;;;;;;17.26;56.62;101079.63;4959065;29;1137;-49
2022/10/31 03:21:44;;;;;;;;;;;;;;;16.90;56.90;101088.56;4960480;28;1906;-44
2022/10/31 03:24:10;;;;;;;;;;;;;;;16.49;57.32;101090.25;4959208;29;1134;-48
2022/10/31 03:26:35;;;;;;;;;;;;;;;16.32;57.26;101091.22;4958846;28;1933;-44
2022/10/31 03:29:07;;;;;;;;;;;;;;;16.18;56.91;101092.78;4958659;29;1167;-50
2022/10/31 03:31:39;;;;;;;;;;;;;;;16.02;57.06;101098.16;4958704;29;1348;-47
2022/10/31 03:34:05;;;;;;;;;;;;;;;17.37;56.15;101092.28;4991001;28;1144;-47
2022/10/31 03:36:32;;;;;;;;;;;;;;;17.00;56.88;101090.53;4986911;28;1253;-48
2022/10/31 03:38:58;;;;;;;;;;;;;;;16.60;56.94;101101.00;4958583;29;1299;-48
2022/10/31 03:41:23;;;;;;;;;;;;;;;16.34;57.23;101099.19;4959790;28;1976;-46
2022/10/31 03:43:56;;;;;;;;;;;;;;;16.20;56.79;101098.81;4942317;28;1237;-49
2022/10/31 03:46:23;;;;;;;;;;;;;;;16.10;56.70;101104.25;4942082;29;1112;-48
2022/10/31 03:48:49;;;;;;;;;;;;;;;16.03;56.56;101112.69;4942602;29;1150;-47
2022/10/31 03:51:24;;;;;;;;;;;;;;;16.21;57.02;101097.75;4942544;29;1134;-45
2022/10/31 03:54:00;;;;;;;;;;;;;;;17.40;56.04;101112.91;4958621;29;1207;-49
2022/10/31 03:56:33;;;;;;;;;;;;;;;16.56;57.57;101105.41;4958314;29;1245;-49
2022/10/31 03:58:59;;;;;;;;;;;;;;;16.34;56.99;101113.78;4940750;28;2327;-48
2022/10/31 04:01:26;;;;;;;;;;;;;;;16.19;56.97;101113.66;4956746;29;1906;-47
2022/10/31 04:03:51;;;;;;;;;;;;;;;16.05;56.67;101116.84;4957786;29;1232;-46
2022/10/31 04:06:17;;;;;;;;;;;;;;;16.23;57.52;101121.09;4958120;29;1316;-48
2022/10/31 04:08:44;;;;;;;;;;;;;;;17.64;55.65;101115.19;4974030;28;1280;-47
2022/10/31 04:11:14;;;;;;;;;;;;;;;16.83;57.14;101120.94;4942412;29;1446;-46
2022/10/31 04:13:41;;;;;;;;;;;;;;;16.42;57.52;101127.00;4942249;29;1312;-46
2022/10/31 04:16:11;;;;;;;;;;;;;;;16.24;57.26;101121.91;4972933;28;1289;-47
2022/10/31 04:18:38;;;;;;;;;;;;;;;16.16;57.16;101136.09;4974088;28;1231;-50
2022/10/31 04:21:06;;;;;;;;;;;;;;;16.06;56.92;101137.69;4942442;29;1311;-49
2022/10/31 04:23:32;;;;;;;;;;;;;;;15.93;56.91;101135.38;4957748;28;1902;-52
2022/10/31 04:25:59;;;;;;;;;;;;;;;15.87;56.41;101139.97;4957801;28;1421;-47
2022/10/31 04:28:26;;;;;;;;;;;;;;;16.95;56.95;101145.44;4957494;28;1849;-50
2022/10/31 04:30:51;;;;;;;;;;;;;;;16.99;56.96;101146.56;4959174;28;1134;-49
2022/10/31 04:33:17;;;;;;;;;;;;;;;16.47;57.41;101155.59;4958026;29;1280;-49
2022/10/31 04:35:44;;;;;;;;;;;;;;;16.24;57.32;101157.56;4957898;28;1322;-49
2022/10/31 04:38:10;;;;;;;;;;;;;;;16.09;57.20;101158.28;4958082;29;1188;-49
2022/10/31 04:40:37;;;;;;;;;;;;;;;17.32;56.59;101165.66;4956634;29;1216;-49
2022/10/31 04:43:32;;;;;;;;;;;;;;;16.77;57.35;101161.28;4952272;28;1973;-49
2022/10/31 04:45:59;;;;;;;;;;;;;;;16.41;57.24;101158.28;4988171;28;1239;-50
2022/10/31 04:48:25;;;;;;;;;;;;;;;16.24;57.13;101163.91;4980180;28;1104;-49
2022/10/31 04:50:50;;;;;;;;;;;;;;;16.11;56.99;101174.50;4972698;28;1247;-50
2022/10/31 04:53:16;;;;;;;;;;;;;;;15.98;56.80;101171.09;4953438;29;888;-48
2022/10/31 04:56:01;;;;;;;;;;;;;;;16.85;57.16;101172.84;4942359;29;1214;-53
2022/10/31 04:58:35;;;;;;;;;;;;;;;17.20;56.68;101174.16;4989434;28;2145;-52
2022/10/31 05:01:04;;;;;;;;;;;;;;;16.55;57.57;101177.03;4957122;29;1331;-52
2022/10/31 05:03:32;;;;;;;;;;;;;;;16.31;57.53;101177.38;4989030;28;1910;-50
2022/10/31 05:05:57;;;;;;;;;;;;;;;16.19;56.92;101177.56;4957292;29;1240;-49
2022/10/31 05:08:23;;;;;;;;;;;;;;;16.02;56.91;101183.19;4958587;28;1126;-53
2022/10/31 05:10:51;;;;;;;;;;;;;;;16.32;57.64;101187.28;4956928;29;1149;-49
2022/10/31 05:13:17;;;;;;;;;;;;;;;17.41;55.93;101189.63;4989404;28;1160;-51
2022/10/31 05:16:14;;;;;;;;;;;;;;;16.55;57.68;101196.25;4956462;28;1322;-50
2022/10/31 05:19:05;;;;;;;;;;;;;;;16.26;57.34;101210.28;4957952;28;1209;-52
2022/10/31 05:21:43;;;;;;;;;;;;;;;16.16;56.89;101211.03;4958017;28;1963;-53
2022/10/31 05:24:09;;;;;;;;;;;;;;;16.02;56.95;101213.38;4988647;28;1301;-48
2022/10/31 05:26:36;;;;;;;;;;;;;;;17.23;56.76;101217.59;4988666;28;1119;-51
2022/10/31 05:29:01;;;;;;;;;;;;;;;16.98;57.02;101230.06;4984643;28;2219;-53
2022/10/31 05:31:27;;;;;;;;;;;;;;;16.52;57.57;101235.22;4953651;28;1344;-48
2022/10/31 05:33:53;;;;;;;;;;;;;;;16.29;57.31;101226.22;4953520;28;1380;-48
2022/10/31 05:36:37;;;;;;;;;;;;;;;16.14;57.17;101232.41;4952243;29;1118;-50
2022/10/31 05:39:10;;;;;;;;;;;;;;;15.99;56.92;101235.00;4988781;28;1188;-50
2022/10/31 05:41:46;;;;;;;;;;;;;;;16.15;57.60;101242.28;4988774;28;1902;-48
2022/10/31 05:44:37;;;;;;;;;;;;;;;17.64;55.66;101256.25;4954785;29;1110;-51
2022/10/31 05:47:29;;;;;;;;;;;;;;;16.73;57.26;101248.03;4951424;28;1262;-52
2022/10/31 05:49:54;;;;;;;;;;;;;;;16.42;57.53;101256.00;4957655;28;1078;-53
2022/10/31 05:52:59;;;;;;;;;;;;;;;16.26;56.87;101254.19;4936558;29;1326;-51
2022/10/31 05:55:33;;;;;;;;;;;;;;;16.10;57.08;101266.09;4956566;29;1119;-50
2022/10/31 05:58:13;;;;;;;;;;;;;;;15.96;56.79;101261.00;4956681;29;2207;-52
2022/10/31 06:00:43;;;;;;;;;;;;;;;15.85;57.01;101260.09;4956462;29;1788;-52
2022/10/31 06:03:10;;;;;;;;;;;;;;;16.61;57.20;101263.84;4988792;28;1894;-50
2022/10/31 06:05:46;;;;;;;;;;;;;;;17.29;56.29;101271.47;4955903;29;1163;-50
2022/10/31 06:08:12;;;;;;;;;;;;;;;16.57;57.71;101270.94;4957822;28;1303;-50
2022/10/31 06:10:39;;;;;;;;;;;;;;;16.32;57.40;101261.38;4992626;28;1386;-51
2022/10/31 06:13:06;;;;;;;;;;;;;;;16.17;57.17;101261.22;4944129;29;1126;-52
2022/10/31 06:15:41;;;;;;;;;;;;;;;16.02;57.10;101270.13;4992773;28;1179;-48
2022/10/31 06:18:08;;;;;;;;;;;;;;;15.92;57.13;101270.84;4960050;28;1177;-53
2022/10/31 06:20:38;;;;;;;;;;;;;;;16.13;57.52;101265.59;4960203;28;1409;-53
2022/10/31 06:23:04;;;;;;;;;;;;;;;17.49;56.13;101264.44;4992309;28;2090;-49
2022/10/31 06:25:31;;;;;;;;;;;;;;;16.75;57.33;101270.53;4961225;28;1126;-55
2022/10/31 06:27:57;;;;;;;;;;;;;;;16.41;57.55;101272.72;4982052;28;1816;-51
2022/10/31 06:30:27;;;;;;;;;;;;;;;16.28;57.17;101282.19;4958629;29;1702;-52
2022/10/31 06:32:52;;;;;;;;;;;;;;;16.10;57.28;101277.06;4960460;28;1121;-53
2022/10/31 06:35:19;;;;;;;;;;;;;;;16.84;57.20;101273.63;4958397;28;1878;-51
2022/10/31 06:37:54;;;;;;;;;;;;;;;16.89;55.84;101272.88;4959535;28;1185;-53
2022/10/31 06:40:40;;;;;;;;;;;;;;;16.34;53.74;101289.41;4947050;28;1177;-53
2022/10/31 06:43:29;;;;;;;;;;;;;;;16.96;55.52;101300.94;4957665;28;1952;-54
2022/10/31 06:46:17;;;;;;;;;;;;;;;16.45;53.63;101305.97;4960072;28;1220;-53
2022/10/31 06:49:01;;;;;;;;;;;;;;;16.62;54.10;101298.47;4959191;29;1008;-49
2022/10/31 06:51:53;;;;;;;;;;;;;;;16.87;54.24;101307.97;4961359;28;1184;-53
2022/10/31 06:54:18;;;;;;;;;;;;;;;16.54;52.85;101301.69;4982166;28;1339;-48
2022/10/31 06:56:47;;;;;;;;;;;;;;;17.61;54.60;101311.78;4952319;28;1150;-52
2022/10/31 06:59:12;;;;;;;;;;;;;;;16.90;53.76;101310.22;4970000;28;1266;-54
2022/10/31 07:01:57;;;;;;;;;;;;;;;16.59;52.34;101307.19;4941412;29;1910;-49
2022/10/31 07:04:23;;;;;;;;;;;;;;;17.33;53.38;101310.25;4958198;29;1168;-56
2022/10/31 07:06:50;;;;;;;;;;;;;;;16.83;52.85;101312.34;4980956;28;1314;-55
2022/10/31 07:09:17;;;;;;;;;;;;;;;16.62;51.20;101312.19;4989259;28;1143;-55
2022/10/31 07:11:42;;;;;;;;;;;;;;;17.36;53.06;101302.31;4982410;28;2300;-53
2022/10/31 07:14:08;;;;;;;;;;;;;;;16.80;52.11;101312.88;4986014;28;1165;-51
2022/10/31 07:16:34;;;;;;;;;;;;;;;17.39;52.92;101304.53;4983937;28;1110;-51
2022/10/31 07:19:01;;;;;;;;;;;;;;;17.60;53.11;101310.16;4945712;28;1507;-50
2022/10/31 07:21:27;;;;;;;;;;;;;;;17.02;52.22;101310.88;4976836;28;1910;-49
2022/10/31 07:23:53;;;;;;;;;;;;;;;16.83;50.72;101304.94;4980024;28;1316;-52
2022/10/31 07:26:37;;;;;;;;;;;;;;;16.57;49.87;101310.19;4959863;29;1204;-52
2022/10/31 07:29:02;;;;;;;;;;;;;;;17.36;51.94;101305.06;4959953;28;2730;-52
2022/10/31 07:31:28;;;;;;;;;;;;;;;16.86;51.31;101306.34;4958109;29;1349;-52
2022/10/31 07:33:58;;;;;;;;;;;;;;;16.67;49.97;101309.47;4980521;28;1393;-47
2022/10/31 07:36:26;;;;;;;;;;;;;;;17.07;51.17;101296.38;4970693;28;1232;-56
2022/10/31 07:38:55;;;;;;;;;;;;;;;16.97;51.26;101299.03;4958845;29;1184;-55
2022/10/31 07:41:21;;;;;;;;;;;;;;;16.68;50.36;101299.34;4958367;29;1113;-55
2022/10/31 07:43:46;;;;;;;;;;;;;;;17.64;51.40;101296.69;4958503;29;1981;-53
2022/10/31 07:46:14;;;;;;;;;;;;;;;16.99;52.00;101300.41;4959542;28;1145;-55
2022/10/31 07:48:46;;;;;;;;;;;;;;;16.90;50.18;101310.22;4968169;28;1243;-55
2022/10/31 07:51:30;;;;;;;;;;;;;;;17.51;51.07;101317.25;4959180;29;1217;-52
2022/10/31 07:54:14;;;;;;;;;;;;;;;16.89;50.71;101311.34;4959100;29;1090;-53
2022/10/31 07:56:40;;;;;;;;;;;;;;;16.86;49.98;101311.84;4959411;28;1150;-55
2022/10/31 07:59:05;;;;;;;;;;;;;;;16.76;49.17;101312.59;4959515;28;2571;-56
2022/10/31 08:01:31;;;;;;;;;;;;;;;16.55;49.05;101322.53;4959399;28;1985;-53
2022/10/31 08:04:15;;;;;;;;;;;;;;;17.59;50.71;101309.31;4959305;29;1162;-52
2022/10/31 08:07:10;;;;;;;;;;;;;;;16.98;50.54;101320.72;4971580;28;1301;-54
2022/10/31 08:09:38;;;;;;;;;;;;;;;18.22;51.79;101315.91;4942596;29;1137;-54
2022/10/31 08:12:14;;;;;;;;;;;;;;;17.56;52.12;101320.03;4971117;28;1211;-54
2022/10/31 08:14:40;;;;;;;;;;;;;;;17.23;50.81;101316.53;4982562;28;1244;-55
2022/10/31 08:17:05;;;;;;;;;;;;;;;17.04;49.67;101314.22;4985647;28;1256;-51
2022/10/31 08:19:40;;;;;;;;;;;;;;;17.74;51.26;101322.31;4957254;29;1257;-51
2022/10/31 08:22:06;;;;;;;;;;;;;;;17.98;51.43;101316.38;4958373;28;1913;-51
2022/10/31 08:24:32;;;;;;;;;;;;;;;18.01;52.41;101310.34;4957560;29;1154;-49
2022/10/31 08:26:57;;;;;;;;;;;;;;;17.23;58.77;101311.84;4989412;28;1861;-48
2022/10/31 08:29:23;;;;;;;;;;;;;;;15.83;61.63;101310.78;4957034;29;1322;-48
2022/10/31 08:31:50;;;;;;;;;;;;;;;18.38;57.75;101309.31;4989175;28;1260;-51
2022/10/31 08:34:34;;;;;;;;;;;;;;;15.91;62.66;101299.38;4958503;29;1082;-52
2022/10/31 08:37:19;;;;;;;;;;;;;;;16.75;57.05;101300.75;4958185;29;1047;-50
2022/10/31 08:39:47;;;;;;;;;;;;;;;17.21;52.99;101308.53;4989603;28;1605;-51
2022/10/31 08:42:13;;;;;;;;;;;;;;;17.24;51.86;101307.19;4958591;28;1969;-49
2022/10/31 08:44:38;;;;;;;;;;;;;;;17.36;51.32;101320.72;4971673;28;1257;-49
2022/10/31 08:47:04;;;;;;;;;;;;;;;17.30;51.20;101316.28;4964333;28;1055;-52
2022/10/31 08:49:32;;;;;;;;;;;;;;;17.48;50.74;101310.34;4989806;28;1168;-48
2022/10/31 08:51:57;;;;;;;;;;;;;;;17.48;50.41;101317.78;4958411;28;1122;-53
2022/10/31 08:54:28;;;;;;;;;;;;;;;17.52;50.81;101310.66;4973754;28;1256;-49
2022/10/31 08:56:54;;;;;;;;;;;;;;;17.71;54.68;101316.50;4939968;28;1837;-50
2022/10/31 08:59:40;;;;;;;;;;;;;;;15.72;57.37;101318.00;4956127;29;1323;-50
2022/10/31 09:02:34;;;;;;;;;;;;;;;16.80;50.98;101318.38;4957063;28;1912;-53
2022/10/31 09:05:01;;;;;;;;;;;;;;;16.82;49.56;101317.03;4989432;28;1211;-50
2022/10/31 09:07:28;;;;;;;;;;;;;;;16.99;50.19;101305.91;4956971;29;1203;-49
2022/10/31 09:09:55;;;;;;;;;;;;;;;17.22;49.98;101299.22;4957158;29;1173;-47
2022/10/31 09:12:21;;;;;;;;;;;;;;;17.14;49.35;101302.47;4957175;28;1175;-49
2022/10/31 09:14:46;;;;;;;;;;;;;;;17.01;48.82;101309.25;4957626;28;1170;-50
2022/10/31 09:17:35;;;;;;;;;;;;;;;16.92;48.43;101308.06;4962605;28;1203;-48
2022/10/31 09:20:19;;;;;;;;;;;;;;;16.96;47.76;101300.94;4957789;29;1157;-48
2022/10/31 09:22:44;;;;;;;;;;;;;;;16.92;47.55;101305.31;4957677;28;1975;-47
2022/10/31 09:25:10;;;;;;;;;;;;;;;16.84;47.44;101311.25;4956984;29;1327;-48
2022/10/31 09:27:37;;;;;;;;;;;;;;;16.99;46.93;101294.94;4974077;28;1966;-50
2022/10/31 09:30:05;;;;;;;;;;;;;;;16.97;46.73;101299.88;4981014;28;1227;-47
2022/10/31 09:32:31;;;;;;;;;;;;;;;16.79;47.12;101295.56;4971490;28;1207;-51
2022/10/31 09:34:58;;;;;;;;;;;;;;;16.87;47.22;101303.34;4937921;29;1310;-49
2022/10/31 09:37:23;;;;;;;;;;;;;;;16.96;47.02;101289.97;4956418;29;1130;-53
2022/10/31 09:39:50;;;;;;;;;;;;;;;17.01;47.66;101292.75;4988961;28;1354;-51
2022/10/31 09:42:36;;;;;;;;;;;;;;;17.20;47.44;101292.31;4984553;28;1985;-54
2022/10/31 09:45:21;;;;;;;;;;;;;;;16.91;47.37;101281.69;4941324;29;1192;-52
2022/10/31 09:47:57;;;;;;;;;;;;;;;16.89;46.80;101278.38;4987277;28;1042;-53
2022/10/31 09:50:44;;;;;;;;;;;;;;;17.67;48.78;101285.97;4980453;28;1146;-54
2022/10/31 09:53:43;;;;;;;;;;;;;;;17.32;49.56;101281.13;4957161;28;1129;-53
2022/10/31 09:56:11;;;;;;;;;;;;;;;17.12;48.49;101279.06;4987755;28;1469;-52
2022/10/31 09:58:41;;;;;;;;;;;;;;;17.06;47.62;101272.72;4972365;28;2534;-53
2022/10/31 10:01:09;;;;;;;;;;;;;;;16.99;47.32;101283.94;4957587;28;1221;-54
2022/10/31 10:03:41;;;;;;;;;;;;;;;16.91;46.85;101270.69;4976317;28;1922;-54
2022/10/31 10:06:27;;;;;;;;;;;;;;;16.89;46.61;101270.97;4943683;28;1346;-52
2022/10/31 10:09:31;;;;;;;;;;;;;;;16.84;46.41;101267.31;4957897;29;1134;-52
2022/10/31 10:12:43;;;;;;;;;;;;;;;17.47;47.68;101264.69;4963767;28;1244;-54
2022/10/31 10:15:31;;;;;;;;;;;;;;;17.09;48.27;101256.53;4957422;28;1254;-53
2022/10/31 10:18:16;;;;;;;;;;;;;;;16.94;47.49;101253.66;4957533;28;1224;-52
2022/10/31 10:21:01;;;;;;;;;;;;;;;16.87;47.02;101261.28;4957061;29;1537;-53
2022/10/31 10:23:30;;;;;;;;;;;;;;;16.87;46.58;101264.03;4976555;28;1907;-53
2022/10/31 10:26:01;;;;;;;;;;;;;;;16.83;46.31;101260.16;4957465;28;1082;-52
2022/10/31 10:28:28;;;;;;;;;;;;;;;16.79;46.00;101262.63;4981087;28;2151;-53
2022/10/31 10:30:56;;;;;;;;;;;;;;;17.02;46.68;101261.41;4981488;28;1133;-52
2022/10/31 10:33:41;;;;;;;;;;;;;;;17.44;48.23;101257.81;4956110;29;1407;-54
2022/10/31 10:36:12;;;;;;;;;;;;;;;17.01;47.97;101265.28;4956961;28;1173;-54
2022/10/31 10:38:38;;;;;;;;;;;;;;;16.86;47.20;101257.72;4957421;28;1146;-52
2022/10/31 10:41:15;;;;;;;;;;;;;;;16.97;46.67;101255.91;4957508;28;1122;-56
2022/10/31 10:43:41;;;;;;;;;;;;;;;16.87;46.24;101253.91;4956624;28;1907;-53
2022/10/31 10:49:09;;;;;;;;;;;;;;;17.58;47.69;101249.09;4955701;29;1161;-53
2022/10/31 10:51:46;;;;;;;;;;;;;;;17.16;48.14;101252.72;4956821;28;1078;-53
2022/10/31 10:54:13;;;;;;;;;;;;;;;17.10;47.44;101249.13;4947078;28;1189;-52
2022/10/31 10:56:51;;;;;;;;;;;;;;;17.03;47.14;101254.03;4959313;29;1133;-51
2022/10/31 10:59:18;;;;;;;;;;;;;;;16.86;47.25;101240.44;4961078;28;1180;-52
2022/10/31 11:01:44;;;;;;;;;;;;;;;17.05;47.36;101238.91;4960452;28;1907;-50
2022/10/31 11:04:22;;;;;;;;;;;;;;;17.07;47.38;101235.91;4960378;28;1205;-50
2022/10/31 11:06:56;;;;;;;;;;;;;;;17.81;47.33;101244.19;4959413;29;1200;-48
2022/10/31 11:09:21;;;;;;;;;;;;;;;19.46;44.40;101251.38;4960345;28;1145;-48
2022/10/31 11:11:47;;;;;;;;;;;;;;;20.64;41.90;101240.75;4960059;28;1154;-48
2022/10/31 11:14:12;;;;;;;;;;;;;;;21.31;41.14;101237.31;4960256;28;1204;-46
2022/10/31 11:16:39;;;;;;;;;;;;;;;21.63;40.82;101233.91;4960202;28;1328;-47
2022/10/31 11:19:09;;;;;;;;;;;;;;;21.91;40.61;101242.41;4959973;28;1223;-47
2022/10/31 11:21:35;;;;;;;;;;;;;;;22.10;40.45;101236.84;4958893;29;1978;-48
2022/10/31 11:24:03;;;;;;;;;;;;;;;22.28;40.47;101242.69;4946974;28;1232;-50
2022/10/31 11:26:29;;;;;;;;;;;;;;;22.49;40.32;101238.47;4960015;28;1220;-48
2022/10/31 11:28:58;;;;;;;;;;;;;;;22.78;39.92;101233.84;4959661;28;2544;-48
2022/10/31 11:31:23;;;;;;;;;;;;;;;22.89;39.99;101233.34;4957717;28;1209;-48
2022/10/31 11:33:49;;;;;;;;;;;;;;;23.01;40.32;101227.28;4957908;28;1157;-49
2022/10/31 11:36:15;;;;;;;;;;;;;;;23.20;40.27;101224.47;4958177;28;1165;-47
2022/10/31 11:38:41;;;;;;;;;;;;;;;23.37;39.87;101220.25;4957573;28;1073;-46
2022/10/31 11:41:11;;;;;;;;;;;;;;;23.37;40.21;101229.38;4980715;28;1049;-46
2022/10/31 11:43:36;;;;;;;;;;;;;;;23.55;40.44;101226.81;4954219;28;1898;-46
2022/10/31 11:46:11;;;;;;;;;;;;;;;23.65;40.28;101231.31;4959264;28;1130;-47
2022/10/31 11:48:36;;;;;;;;;;;;;;;23.75;40.10;101228.31;4945561;29;1157;-47
2022/10/31 11:51:01;;;;;;;;;;;;;;;23.87;40.36;101220.28;4959230;28;1081;-51
2022/10/31 11:53:28;;;;;;;;;;;;;;;23.92;40.33;101222.97;4957570;29;1165;-48
2022/10/31 11:56:14;;;;;;;;;;;;;;;23.91;40.47;101221.31;4957344;29;1276;-48
2022/10/31 11:58:39;;;;;;;;;;;;;;;24.08;40.35;101217.84;4957536;28;1757;-50
2022/10/31 12:01:04;;;;;;;;;;;;;;;24.14;40.29;101218.56;4958304;29;1285;-47
2022/10/31 12:03:33;;;;;;;;;;;;;;;24.26;40.38;101221.59;4958555;28;1980;-47
2022/10/31 12:06:00;;;;;;;;;;;;;;;24.30;40.52;101221.78;4956224;28;1070;-47
2022/10/31 12:08:27;;;;;;;;;;;;;;;24.31;40.74;101214.28;4955679;29;940;-47
2022/10/31 12:10:53;;;;;;;;;;;;;;;24.39;40.72;101217.09;4957044;28;1345;-50
2022/10/31 12:13:37;;;;;;;;;;;;;;;24.50;40.43;101217.69;4956738;28;1062;-48
2022/10/31 12:16:23;;;;;;;;;;;;;;;24.63;40.61;101213.19;4957120;28;1205;-51
2022/10/31 12:19:07;;;;;;;;;;;;;;;24.67;40.32;101213.41;4937249;29;1199;-49
2022/10/31 12:21:44;;;;;;;;;;;;;;;24.73;40.55;101207.34;4957190;29;1043;-48
2022/10/31 12:24:14;;;;;;;;;;;;;;;24.82;40.63;101209.38;4952779;29;1220;-50
2022/10/31 12:26:45;;;;;;;;;;;;;;;24.93;40.47;101205.16;4958588;28;1067;-49
2022/10/31 12:29:22;;;;;;;;;;;;;;;25.07;40.46;101205.06;4958692;28;1235;-51
2022/10/31 12:31:48;;;;;;;;;;;;;;;25.16;40.36;101210.69;4958225;28;1149;-51
2022/10/31 12:34:19;;;;;;;;;;;;;;;25.26;40.26;101213.16;4956921;29;1181;-51
2022/10/31 12:36:55;;;;;;;;;;;;;;;25.27;40.67;101204.47;4958380;28;1138;-53
2022/10/31 12:39:49;;;;;;;;;;;;;;;25.38;40.59;101209.75;4957526;29;1181;-50
2022/10/31 12:42:18;;;;;;;;;;;;;;;25.49;40.46;101204.72;4938224;28;1976;-58
2022/10/31 12:44:46;;;;;;;;;;;;;;;25.60;40.26;101218.03;4964531;28;899;-50
2022/10/31 12:47:26;;;;;;;;;;;;;;;25.68;40.07;101207.22;4958813;28;1193;-53
2022/10/31 12:49:55;;;;;;;;;;;;;;;25.78;40.19;101218.88;4956855;29;1141;-50
2022/10/31 12:52:28;;;;;;;;;;;;;;;25.79;40.29;101208.53;4956993;29;1098;-49
2022/10/31 12:55:06;;;;;;;;;;;;;;;25.87;40.09;101209.69;4956929;28;1090;-54
2022/10/31 12:57:33;;;;;;;;;;;;;;;25.99;39.74;101212.63;4956490;29;2086;-57
2022/10/31 13:00:02;;;;;;;;;;;;;;;26.00;39.84;101213.47;4956946;29;1165;-52
2022/10/31 13:02:30;;;;;;;;;;;;;;;26.09;39.74;101211.53;4957958;29;1981;-57
2022/10/31 13:04:55;;;;;;;;;;;;;;;26.18;39.74;101217.13;4958211;28;1101;-51
2022/10/31 13:07:39;;;;;;;;;;;;;;;26.24;39.67;101219.38;4957677;28;1093;-55
2022/10/31 13:10:30;;;;;;;;;;;;;;;26.26;39.50;101217.09;4957848;28;1137;-51